createdAt,value
2019-03-19T00:00:39.933Z,24.70
2019-03-19T00:03:06.702Z,25.17
2019-03-19T00:05:33.397Z,25.47
2019-03-19T00:08:00.031Z,25.03
2019-03-19T00:10:26.777Z,21.53
2019-03-19T00:12:53.475Z,22.43
2019-03-19T00:15:20.211Z,22.30
2019-03-19T00:17:46.948Z,21.53
2019-03-19T00:20:13.644Z,21.33
2019-03-19T00:22:40.333Z,22.53
2019-03-19T00:25:07.034Z,23.27
2019-03-19T00:27:33.756Z,24.40
2019-03-19T00:30:00.485Z,22.07
2019-03-19T00:32:27.316Z,21.67
2019-03-19T00:34:54.005Z,22.83
2019-03-19T00:37:20.743Z,24.63
2019-03-19T00:39:47.605Z,23.63
2019-03-19T00:42:14.337Z,23.20
2019-03-19T00:44:41.054Z,21.37
2019-03-19T00:47:07.885Z,23.47
2019-03-19T00:49:34.531Z,21.70
2019-03-19T00:52:01.225Z,23.53
2019-03-19T00:54:27.983Z,19.13
2019-03-19T00:56:54.676Z,20.73
2019-03-19T00:59:21.368Z,18.73
2019-03-19T01:01:48.138Z,22.37
2019-03-19T01:04:15.110Z,20.33
2019-03-19T01:06:41.719Z,19.57
2019-03-19T01:09:08.497Z,19.70
2019-03-19T01:11:35.214Z,18.80
2019-03-19T01:14:01.937Z,17.23
2019-03-19T01:16:28.683Z,19.47
2019-03-19T01:18:55.378Z,19.73
2019-03-19T01:21:22.005Z,20.43
2019-03-19T01:23:48.799Z,16.47
2019-03-19T01:26:15.502Z,17.43
2019-03-19T01:28:42.230Z,18.50
2019-03-19T01:31:08.974Z,17.33
2019-03-19T01:33:35.589Z,18.33
2019-03-19T01:36:02.322Z,15.30
2019-03-19T01:38:29.062Z,18.23
2019-03-19T01:40:55.781Z,17.63
2019-03-19T01:43:22.480Z,18.40
2019-03-19T01:45:49.240Z,14.70
2019-03-19T01:48:15.866Z,19.33
2019-03-19T01:50:42.567Z,18.27
2019-03-19T01:53:09.390Z,17.07
2019-03-19T01:55:36.035Z,16.67
2019-03-19T01:58:02.729Z,17.33
2019-03-19T02:00:29.480Z,19.53
2019-03-19T02:02:56.207Z,19.10
2019-03-19T02:05:22.905Z,18.67
2019-03-19T02:07:49.659Z,16.43
2019-03-19T02:10:16.368Z,18.57
2019-03-19T02:12:43.121Z,17.70
2019-03-19T02:15:09.851Z,19.80
2019-03-19T02:17:36.575Z,16.30
2019-03-19T02:20:03.289Z,18.83
2019-03-19T02:22:30.075Z,17.33
2019-03-19T02:24:56.765Z,18.43
2019-03-19T02:27:23.483Z,19.67
2019-03-19T02:29:50.256Z,17.37
2019-03-19T02:32:16.944Z,17.53
2019-03-19T02:34:43.643Z,19.87
2019-03-19T02:37:10.470Z,16.80
2019-03-19T02:39:37.126Z,17.83
2019-03-19T02:42:03.807Z,15.77
2019-03-19T02:44:30.570Z,17.83
2019-03-19T02:46:57.269Z,16.17
2019-03-19T02:49:24.005Z,14.93
2019-03-19T02:51:50.816Z,16.27
2019-03-19T02:54:17.541Z,16.33
2019-03-19T02:56:44.230Z,16.27
2019-03-19T02:59:11.089Z,16.37
2019-03-19T03:01:37.790Z,14.87
2019-03-19T03:04:04.485Z,13.70
2019-03-19T03:06:31.234Z,16.07
2019-03-19T03:08:57.929Z,15.07
2019-03-19T03:11:24.570Z,13.37
2019-03-19T03:13:51.362Z,15.77
2019-03-19T03:16:18.045Z,15.70
2019-03-19T03:18:44.688Z,16.53
2019-03-19T03:21:11.442Z,14.03
2019-03-19T03:23:38.144Z,13.30
2019-03-19T03:26:04.834Z,15.07
2019-03-19T03:28:31.675Z,14.27
2019-03-19T03:30:58.377Z,14.97
2019-03-19T03:33:25.093Z,15.00
2019-03-19T03:35:51.865Z,14.73
2019-03-19T03:38:18.552Z,17.33
2019-03-19T03:40:45.171Z,14.37
2019-03-19T03:43:11.864Z,14.07
2019-03-19T03:45:38.574Z,14.80
2019-03-19T03:48:05.297Z,15.17
2019-03-19T03:50:32.438Z,14.50
2019-03-19T03:52:59.143Z,13.67
2019-03-19T03:55:25.823Z,14.50
2019-03-19T03:57:52.653Z,15.40
2019-03-19T04:00:19.350Z,16.77
2019-03-19T04:02:46.001Z,14.63
2019-03-19T04:05:12.810Z,14.87
2019-03-19T04:07:39.524Z,14.03
2019-03-19T04:10:06.252Z,11.23
2019-03-19T04:12:33.034Z,14.47
2019-03-19T04:14:59.730Z,13.17
2019-03-19T04:17:26.418Z,13.67
2019-03-19T04:19:53.220Z,15.20
2019-03-19T04:22:19.903Z,13.63
2019-03-19T04:24:46.595Z,16.37
2019-03-19T04:27:16.343Z,13.67
2019-03-19T04:29:41.624Z,12.90
2019-03-19T04:32:08.315Z,14.93
2019-03-19T04:34:35.014Z,14.97
2019-03-19T04:37:01.723Z,11.63
2019-03-19T04:39:28.453Z,14.20
2019-03-19T04:41:55.211Z,12.03
2019-03-19T04:44:21.939Z,14.83
2019-03-19T04:46:48.625Z,13.23
2019-03-19T04:49:15.327Z,12.60
2019-03-19T04:51:42.055Z,14.20
2019-03-19T04:54:08.747Z,13.20
2019-03-19T04:56:35.469Z,11.27
2019-03-19T04:59:02.185Z,11.70
2019-03-19T05:01:28.876Z,13.40
2019-03-19T05:03:55.634Z,11.93
2019-03-19T05:06:22.352Z,11.50
2019-03-19T05:08:49.047Z,14.40
2019-03-19T05:11:15.807Z,12.93
2019-03-19T05:13:42.485Z,10.90
2019-03-19T05:16:09.182Z,10.33
2019-03-19T05:18:35.980Z,13.03
2019-03-19T05:21:02.714Z,10.20
2019-03-19T05:23:29.441Z,10.57
2019-03-19T05:25:56.191Z,10.20
2019-03-19T05:28:22.882Z,9.97
2019-03-19T05:30:49.600Z,12.80
2019-03-19T05:33:16.421Z,12.87
2019-03-19T05:35:43.124Z,12.17
2019-03-19T05:38:09.813Z,12.67
2019-03-19T05:40:36.497Z,12.17
2019-03-19T05:43:03.286Z,10.80
2019-03-19T05:45:29.978Z,11.93
2019-03-19T05:47:56.749Z,10.97
2019-03-19T05:50:23.471Z,12.17
2019-03-19T05:52:50.188Z,10.07
2019-03-19T05:55:17.043Z,12.20
2019-03-19T05:57:49.594Z,10.60
2019-03-19T06:00:12.097Z,12.70
2019-03-19T06:02:38.869Z,10.50
2019-03-19T06:05:05.588Z,11.73
2019-03-19T06:07:32.294Z,12.53
2019-03-19T06:09:59.064Z,12.70
2019-03-19T06:12:25.766Z,12.23
2019-03-19T06:14:52.482Z,11.60
2019-03-19T06:17:19.245Z,14.00
2019-03-19T06:19:45.866Z,12.07
2019-03-19T06:22:12.548Z,12.83
2019-03-19T06:24:39.372Z,13.20
2019-03-19T06:27:06.201Z,13.50
2019-03-19T06:29:32.948Z,13.47
2019-03-19T06:32:00.027Z,12.40
2019-03-19T06:34:26.725Z,13.00
2019-03-19T06:36:53.485Z,12.03
2019-03-19T06:39:20.582Z,12.63
2019-03-19T06:41:47.356Z,12.23
2019-03-19T06:44:14.210Z,11.37
2019-03-19T06:46:41.050Z,11.17
2019-03-19T06:49:07.776Z,11.20
2019-03-19T06:51:34.420Z,11.73
2019-03-19T06:54:01.305Z,13.47
2019-03-19T06:56:28.118Z,11.27
2019-03-19T06:58:54.954Z,10.87
2019-03-19T07:01:21.800Z,11.07
2019-03-19T07:03:48.518Z,10.23
2019-03-19T07:06:15.266Z,12.03
2019-03-19T07:08:42.652Z,10.67
2019-03-19T07:11:09.467Z,11.00
2019-03-19T07:13:36.307Z,10.63
2019-03-19T07:16:03.202Z,12.00
2019-03-19T07:18:29.986Z,10.57
2019-03-19T07:20:56.847Z,11.50
2019-03-19T07:23:23.645Z,11.20
2019-03-19T07:25:50.365Z,10.73
2019-03-19T07:28:22.072Z,11.30
2019-03-19T07:30:45.477Z,10.43
2019-03-19T07:33:12.246Z,8.67
2019-03-19T07:35:38.984Z,9.93
2019-03-19T07:38:05.789Z,11.10
2019-03-19T07:40:32.485Z,9.10
2019-03-19T07:42:59.206Z,8.17
2019-03-19T07:45:25.928Z,9.03
2019-03-19T07:47:52.624Z,8.03
2019-03-19T07:50:19.368Z,8.67
2019-03-19T07:52:46.236Z,7.30
2019-03-19T07:55:12.959Z,8.33
2019-03-19T07:57:39.676Z,8.80
2019-03-19T08:00:06.499Z,9.83
2019-03-19T08:02:33.133Z,9.13
2019-03-19T08:04:59.846Z,7.87
2019-03-19T08:07:26.631Z,9.37
2019-03-19T08:09:53.370Z,7.47
2019-03-19T08:12:20.071Z,7.93
2019-03-19T08:14:46.841Z,7.10
2019-03-19T08:17:13.565Z,6.47
2019-03-19T08:19:40.299Z,7.70
2019-03-19T08:22:07.047Z,8.10
2019-03-19T08:24:33.738Z,7.00
2019-03-19T08:27:00.373Z,7.83
2019-03-19T08:29:27.146Z,7.80
2019-03-19T08:31:53.861Z,7.67
2019-03-19T08:34:20.564Z,8.47
2019-03-19T08:36:47.342Z,7.83
2019-03-19T08:39:14.064Z,6.57
2019-03-19T08:41:40.793Z,7.50
2019-03-19T08:44:07.839Z,8.27
2019-03-19T08:46:34.855Z,8.03
2019-03-19T08:49:01.588Z,7.20
2019-03-19T08:51:28.356Z,7.97
2019-03-19T08:53:55.074Z,7.60
2019-03-19T08:56:21.766Z,9.67
2019-03-19T08:58:48.561Z,9.03
2019-03-19T09:01:15.245Z,8.13
2019-03-19T09:03:41.880Z,6.87
2019-03-19T09:06:08.672Z,8.03
2019-03-19T09:08:35.410Z,7.50
2019-03-19T09:11:02.134Z,8.63
2019-03-19T09:13:29.256Z,10.50
2019-03-19T09:15:55.877Z,8.73
2019-03-19T09:18:22.536Z,8.43
2019-03-19T09:20:49.405Z,8.60
2019-03-19T09:23:16.145Z,7.37
2019-03-19T09:25:42.839Z,8.27
2019-03-19T09:28:09.695Z,9.60
2019-03-19T09:30:36.396Z,7.27
2019-03-19T09:33:03.195Z,7.70
2019-03-19T09:35:29.976Z,9.97
2019-03-19T09:37:58.890Z,8.70
2019-03-19T09:40:25.051Z,9.73
2019-03-19T09:42:51.807Z,7.43
2019-03-19T09:45:18.532Z,7.23
2019-03-19T09:47:45.229Z,6.53
2019-03-19T09:50:12.469Z,7.33
2019-03-19T09:52:39.115Z,7.53
2019-03-19T09:55:05.778Z,6.43
2019-03-19T09:57:32.492Z,7.63
2019-03-19T09:59:59.186Z,7.47
2019-03-19T10:02:25.808Z,8.33
2019-03-19T10:04:52.602Z,7.73
2019-03-19T10:07:20.052Z,6.93
2019-03-19T10:09:46.806Z,6.13
2019-03-19T10:12:13.810Z,6.93
2019-03-19T10:14:41.720Z,6.17
2019-03-19T10:17:08.617Z,5.00
2019-03-19T10:19:35.445Z,6.87
2019-03-19T10:22:02.111Z,6.80
2019-03-19T10:24:28.727Z,5.67
2019-03-19T10:26:55.415Z,5.43
2019-03-19T10:29:22.035Z,5.70
2019-03-19T10:31:48.760Z,4.73
2019-03-19T10:34:15.579Z,5.63
2019-03-19T10:36:42.337Z,5.83
2019-03-19T10:39:09.299Z,4.10
2019-03-19T10:41:36.117Z,5.27
2019-03-19T10:44:02.818Z,5.03
2019-03-19T10:46:29.545Z,6.03
2019-03-19T10:48:56.464Z,5.30
2019-03-19T10:51:23.103Z,7.43
2019-03-19T10:53:49.737Z,5.53
2019-03-19T10:56:16.487Z,6.70
2019-03-19T10:58:43.399Z,5.60
2019-03-19T11:01:10.174Z,5.37
2019-03-19T11:03:36.922Z,6.30
2019-03-19T11:06:03.590Z,6.00
2019-03-19T11:08:30.403Z,5.90
2019-03-19T11:10:57.173Z,5.97
2019-03-19T11:13:23.993Z,6.87
2019-03-19T11:15:50.714Z,7.33
2019-03-19T11:18:17.577Z,6.10
2019-03-19T11:20:45.550Z,5.63
2019-03-19T11:23:12.366Z,5.60
2019-03-19T11:25:39.209Z,6.17
2019-03-19T11:28:05.944Z,6.50
2019-03-19T11:30:32.814Z,5.23
2019-03-19T11:32:59.593Z,7.23
2019-03-19T11:35:26.316Z,7.70
2019-03-19T11:37:53.009Z,6.60
2019-03-19T11:40:19.840Z,7.93
2019-03-19T11:42:46.477Z,8.30
2019-03-19T11:45:13.125Z,7.33
2019-03-19T11:47:40.001Z,5.40
2019-03-19T11:50:06.718Z,5.37
2019-03-19T11:52:33.423Z,5.47
2019-03-19T11:55:00.495Z,6.30
2019-03-19T11:57:27.199Z,5.60
2019-03-19T11:59:53.864Z,5.60
2019-03-19T12:02:25.925Z,4.63
2019-03-19T12:04:49.156Z,4.80
2019-03-19T12:07:15.884Z,6.97
2019-03-19T12:09:42.763Z,5.43
2019-03-19T12:12:11.583Z,5.03
2019-03-19T12:14:37.851Z,6.13
2019-03-19T12:17:05.033Z,5.67
2019-03-19T12:19:31.866Z,7.77
2019-03-19T12:21:58.537Z,6.90
2019-03-19T12:24:25.379Z,7.93
2019-03-19T12:26:52.130Z,6.77
2019-03-19T12:29:18.876Z,6.00
2019-03-19T12:31:45.650Z,6.63
2019-03-19T12:34:12.303Z,7.60
2019-03-19T12:36:38.997Z,4.57
2019-03-19T12:39:05.778Z,5.83
2019-03-19T12:41:32.515Z,6.80
2019-03-19T12:43:59.233Z,5.37
2019-03-19T12:46:26.055Z,8.80
2019-03-19T12:48:54.388Z,7.83
2019-03-19T12:51:21.239Z,8.13
2019-03-19T12:53:47.999Z,6.90
2019-03-19T12:56:14.700Z,6.37
2019-03-19T12:58:41.403Z,6.40
2019-03-19T13:01:08.202Z,5.63
2019-03-19T13:03:34.991Z,6.73
2019-03-19T13:06:01.714Z,4.53
2019-03-19T13:08:28.717Z,6.50
2019-03-19T13:10:55.493Z,5.30
2019-03-19T13:13:22.338Z,4.87
2019-03-19T13:15:49.359Z,5.33
2019-03-19T13:18:16.157Z,6.67
2019-03-19T13:20:42.874Z,6.33
2019-03-19T13:23:09.638Z,6.47
2019-03-19T13:25:36.347Z,5.43
2019-03-19T13:28:02.968Z,7.13
2019-03-19T13:30:29.670Z,6.90
2019-03-19T13:32:56.417Z,5.17
2019-03-19T13:35:23.099Z,7.57
2019-03-19T13:37:49.804Z,6.23
2019-03-19T13:40:16.580Z,7.13
2019-03-19T13:42:43.339Z,5.77
2019-03-19T13:45:10.152Z,5.10
2019-03-19T13:47:36.804Z,5.27
2019-03-19T13:50:03.737Z,4.50
2019-03-19T13:52:30.664Z,3.87
2019-03-19T13:54:57.865Z,4.90
2019-03-19T13:57:24.602Z,5.50
2019-03-19T13:59:51.394Z,4.70
2019-03-19T14:02:18.078Z,4.53
2019-03-19T14:04:44.781Z,4.97
2019-03-19T14:07:13.936Z,5.23
2019-03-19T14:09:40.872Z,5.13
2019-03-19T14:12:07.523Z,6.07
2019-03-19T14:14:34.603Z,6.63
2019-03-19T14:17:01.365Z,5.23
2019-03-19T14:19:28.091Z,4.83
2019-03-19T14:21:54.890Z,4.47
2019-03-19T14:24:21.618Z,5.07
2019-03-19T14:26:50.351Z,6.23
2019-03-19T14:29:16.804Z,4.73
2019-03-19T14:31:43.528Z,5.30
2019-03-19T14:34:10.232Z,5.07
2019-03-19T14:36:36.929Z,4.77
2019-03-19T14:39:04.824Z,4.50
2019-03-19T14:41:31.677Z,5.27
2019-03-19T14:43:58.456Z,6.10
2019-03-19T14:46:25.178Z,5.60
2019-03-19T14:48:51.880Z,5.90
2019-03-19T14:51:18.576Z,6.37
2019-03-19T14:53:45.300Z,6.50
2019-03-19T14:56:11.929Z,5.03
2019-03-19T14:58:38.736Z,5.00
2019-03-19T15:01:05.460Z,6.27
2019-03-19T15:03:32.153Z,6.73
2019-03-19T15:05:58.905Z,5.60
2019-03-19T15:08:25.726Z,7.33
2019-03-19T15:10:52.477Z,7.40
2019-03-19T15:13:19.317Z,5.57
2019-03-19T15:15:46.014Z,5.47
2019-03-19T15:18:12.818Z,4.80
2019-03-19T15:20:39.982Z,5.73
2019-03-19T15:23:06.780Z,5.00
2019-03-19T15:25:33.626Z,5.40
2019-03-19T15:28:00.464Z,5.07
2019-03-19T15:30:27.201Z,6.20
2019-03-19T15:32:53.951Z,4.83
2019-03-19T15:35:21.190Z,6.27
2019-03-19T15:37:47.886Z,5.37
2019-03-19T15:40:14.613Z,5.43
2019-03-19T15:42:41.471Z,5.07
2019-03-19T15:45:08.163Z,5.80
2019-03-19T15:47:34.907Z,6.30
2019-03-19T15:50:01.671Z,5.30
2019-03-19T15:52:28.321Z,6.83
2019-03-19T15:54:55.122Z,5.80
2019-03-19T15:57:22.067Z,7.13
2019-03-19T15:59:48.899Z,5.90
2019-03-19T16:02:15.662Z,5.77
2019-03-19T16:04:42.507Z,5.53
2019-03-19T16:07:09.221Z,5.63
2019-03-19T16:09:35.923Z,5.60
2019-03-19T16:12:03.069Z,8.03
2019-03-19T16:14:29.749Z,6.83
2019-03-19T16:16:56.451Z,11.30
2019-03-19T16:19:23.739Z,6.97
2019-03-19T16:21:50.437Z,7.80
2019-03-19T16:24:17.210Z,8.40
2019-03-19T16:26:44.049Z,5.60
2019-03-19T16:29:10.894Z,5.27
2019-03-19T16:31:37.728Z,5.77
2019-03-19T16:34:04.584Z,7.97
2019-03-19T16:36:31.307Z,9.17
2019-03-19T16:38:57.946Z,8.90
2019-03-19T16:41:24.875Z,10.13
2019-03-19T16:43:51.654Z,10.67
2019-03-19T16:46:18.485Z,9.73
2019-03-19T16:48:45.347Z,7.33
2019-03-19T16:51:12.201Z,6.80
2019-03-19T16:53:38.996Z,6.47
2019-03-19T16:56:07.606Z,7.53
2019-03-19T16:58:34.266Z,7.17
2019-03-19T17:01:01.069Z,8.83
2019-03-19T17:03:27.945Z,8.57
2019-03-19T17:05:54.745Z,8.30
2019-03-19T17:08:21.686Z,8.60
2019-03-19T17:10:48.434Z,6.70
2019-03-19T17:13:15.250Z,6.57
2019-03-19T17:15:41.884Z,5.87
2019-03-19T17:18:08.758Z,5.83
2019-03-19T17:20:35.472Z,5.97
2019-03-19T17:23:02.192Z,7.60
2019-03-19T17:25:28.967Z,8.40
2019-03-19T17:27:55.719Z,7.70
2019-03-19T17:30:22.438Z,7.63
2019-03-19T17:32:49.244Z,7.17
2019-03-19T17:35:15.995Z,6.53
2019-03-19T17:37:42.671Z,8.23
2019-03-19T17:40:09.387Z,7.27
2019-03-19T17:42:36.069Z,8.23
2019-03-19T17:45:02.777Z,7.60
2019-03-19T17:47:29.596Z,7.90
2019-03-19T17:49:56.328Z,8.47
2019-03-19T17:52:23.009Z,8.27
2019-03-19T17:54:49.797Z,7.30
2019-03-19T17:57:16.498Z,8.50
2019-03-19T17:59:43.217Z,7.97
2019-03-19T18:02:10.013Z,7.57
2019-03-19T18:04:36.776Z,8.77
2019-03-19T18:07:03.478Z,8.90
2019-03-19T18:09:30.247Z,9.67
2019-03-19T18:11:56.970Z,8.13
2019-03-19T18:14:23.705Z,9.83
2019-03-19T18:16:50.518Z,9.20
2019-03-19T18:19:17.259Z,8.00
2019-03-19T18:21:43.979Z,11.97
2019-03-19T18:24:10.816Z,10.77
2019-03-19T18:26:37.527Z,10.80
2019-03-19T18:29:04.238Z,10.77
2019-03-19T18:31:30.992Z,11.60
2019-03-19T18:33:57.725Z,11.10
2019-03-19T18:36:24.457Z,11.30
2019-03-19T18:38:51.231Z,10.90
2019-03-19T18:41:18.123Z,11.40
2019-03-19T18:43:44.766Z,11.17
2019-03-19T18:46:11.562Z,12.50
2019-03-19T18:48:39.846Z,13.47
2019-03-19T18:51:06.695Z,14.80
2019-03-19T18:53:33.939Z,15.47
2019-03-19T18:56:00.678Z,16.90
2019-03-19T18:58:27.395Z,17.23
2019-03-19T19:00:54.178Z,16.47
2019-03-19T19:03:21.098Z,17.43
2019-03-19T19:05:47.967Z,16.33
2019-03-19T19:08:15.225Z,17.33
2019-03-19T19:10:41.892Z,15.40
2019-03-19T19:13:08.640Z,16.97
2019-03-19T19:15:35.421Z,14.93
2019-03-19T19:18:02.115Z,13.80
2019-03-19T19:20:28.824Z,17.40
2019-03-19T19:22:55.585Z,15.47
2019-03-19T19:25:22.333Z,14.20
2019-03-19T19:27:49.091Z,14.23
2019-03-19T19:30:15.978Z,14.87
2019-03-19T19:32:42.794Z,15.57
2019-03-19T19:35:09.660Z,14.03
2019-03-19T19:37:36.582Z,14.50
2019-03-19T19:40:03.275Z,13.27
2019-03-19T19:42:30.142Z,16.37
2019-03-19T19:44:56.855Z,14.23
2019-03-19T19:47:23.599Z,13.40
2019-03-19T19:49:50.281Z,17.73
2019-03-19T19:52:17.017Z,16.67
2019-03-19T19:54:43.712Z,17.77
2019-03-19T19:57:10.347Z,23.23
2019-03-19T19:59:37.134Z,20.57
2019-03-19T20:02:03.834Z,21.50
2019-03-19T20:04:30.560Z,24.37
2019-03-19T20:06:57.311Z,21.30
2019-03-19T20:09:23.935Z,20.93
2019-03-19T20:11:50.736Z,20.30
2019-03-19T20:14:17.563Z,22.60
2019-03-19T20:16:44.403Z,24.40
2019-03-19T20:19:11.144Z,22.83
2019-03-19T20:21:37.977Z,24.13
2019-03-19T20:24:04.827Z,22.13
2019-03-19T20:26:31.559Z,21.73
2019-03-19T20:28:58.361Z,25.07
2019-03-19T20:31:25.142Z,25.40
2019-03-19T20:33:51.894Z,27.80
2019-03-19T20:36:18.724Z,27.47
2019-03-19T20:38:45.459Z,26.20
2019-03-19T20:41:12.224Z,25.77
2019-03-19T20:43:39.044Z,27.33
2019-03-19T20:46:05.832Z,26.30
2019-03-19T20:48:32.812Z,22.77
2019-03-19T20:50:59.813Z,26.10
2019-03-19T20:53:26.551Z,25.83
2019-03-19T20:55:53.387Z,27.70
2019-03-19T20:58:20.177Z,26.17
2019-03-19T21:00:46.867Z,28.53
2019-03-19T21:03:13.507Z,24.17
2019-03-19T21:05:40.268Z,29.23
2019-03-19T21:08:06.996Z,35.73
2019-03-19T21:10:33.734Z,33.57
2019-03-19T21:13:00.547Z,33.27
2019-03-19T21:15:27.250Z,29.47
2019-03-19T21:17:53.990Z,30.03
2019-03-19T21:20:20.758Z,31.10
2019-03-19T21:22:47.500Z,32.93
2019-03-19T21:25:14.220Z,33.93
2019-03-19T21:27:41.020Z,31.10
2019-03-19T21:30:07.754Z,29.83
2019-03-19T21:32:34.600Z,23.67
2019-03-19T21:35:01.470Z,28.13
2019-03-19T21:37:28.170Z,28.90
2019-03-19T21:39:54.861Z,28.30
2019-03-19T21:42:21.599Z,29.53
2019-03-19T21:44:48.324Z,32.73
2019-03-19T21:47:15.029Z,30.17
2019-03-19T21:49:41.814Z,32.37
2019-03-19T21:52:08.529Z,28.47
2019-03-19T21:54:35.295Z,32.87
2019-03-19T21:57:02.054Z,31.07
2019-03-19T21:59:28.985Z,34.53
2019-03-19T22:01:55.633Z,34.37
2019-03-19T22:04:22.407Z,34.80
2019-03-19T22:06:49.138Z,32.30
2019-03-19T22:09:15.848Z,29.67
2019-03-19T22:11:42.625Z,33.17
2019-03-19T22:14:09.338Z,33.27
2019-03-19T22:16:36.062Z,35.27
2019-03-19T22:19:02.763Z,30.43
2019-03-19T22:21:29.497Z,35.27
2019-03-19T22:23:56.206Z,36.03
2019-03-19T22:26:22.955Z,39.33
2019-03-19T22:28:49.683Z,41.03
2019-03-19T22:31:16.402Z,42.43
2019-03-19T22:33:43.193Z,40.50
2019-03-19T22:36:11.833Z,40.77
2019-03-19T22:38:38.454Z,46.63
2019-03-19T22:41:05.438Z,47.40
2019-03-19T22:43:32.287Z,43.47
2019-03-19T22:45:58.942Z,42.03
2019-03-19T22:48:25.867Z,43.33
2019-03-19T22:50:52.562Z,42.73
2019-03-19T22:53:19.222Z,48.30
2019-03-19T22:55:45.995Z,42.63
2019-03-19T22:58:12.691Z,39.93
2019-03-19T23:00:39.381Z,45.80
2019-03-19T23:03:06.082Z,42.87
2019-03-19T23:05:32.783Z,39.00
2019-03-19T23:07:59.486Z,42.07
2019-03-19T23:10:26.273Z,49.30
2019-03-19T23:12:52.965Z,45.03
2019-03-19T23:15:19.665Z,48.57
2019-03-19T23:17:46.459Z,45.33
2019-03-19T23:20:13.185Z,46.63
2019-03-19T23:22:39.892Z,42.30
2019-03-19T23:25:06.631Z,42.57
2019-03-19T23:27:33.260Z,48.23
2019-03-19T23:29:59.893Z,44.40
2019-03-19T23:32:26.644Z,44.63
2019-03-19T23:34:53.263Z,41.50
2019-03-19T23:37:19.972Z,45.73
2019-03-19T23:39:46.722Z,43.70
2019-03-19T23:42:13.386Z,46.17
2019-03-19T23:44:40.119Z,47.33
2019-03-19T23:47:06.944Z,44.10
2019-03-19T23:49:33.691Z,44.07
2019-03-19T23:52:00.392Z,47.13
2019-03-19T23:54:27.165Z,39.93
2019-03-19T23:56:53.899Z,46.93
2019-03-19T23:59:20.650Z,49.13
